createdAt,value
2022-08-07T00:00:32.613Z,71.15
2022-08-07T00:03:00.912Z,71.84
2022-08-07T00:05:31.208Z,71.47
2022-08-07T00:08:00.524Z,71.42
2022-08-07T00:10:31.586Z,71.25
2022-08-07T00:13:09.626Z,71.11
2022-08-07T00:15:46.829Z,71.17
2022-08-07T00:18:24.585Z,71.29
2022-08-07T00:20:54.454Z,71.49
2022-08-07T00:23:22.820Z,71.39
2022-08-07T00:25:52.564Z,71.76
2022-08-07T00:28:33.992Z,71.01
2022-08-07T00:31:05.942Z,71.10
2022-08-07T00:33:35.576Z,71.13
2022-08-07T00:36:05.435Z,71.19
2022-08-07T00:38:35.933Z,71.72
2022-08-07T00:41:10.081Z,71.46
2022-08-07T00:44:01.650Z,71.47
2022-08-07T00:46:33.186Z,71.11
2022-08-07T00:49:03.218Z,71.42
2022-08-07T00:51:58.190Z,71.73
2022-08-07T00:54:20.593Z,71.63
2022-08-07T00:56:51.120Z,71.69
2022-08-07T00:59:35.918Z,70.93
2022-08-07T01:02:06.228Z,71.87
2022-08-07T01:04:43.376Z,71.75
2022-08-07T01:07:12.748Z,71.29
2022-08-07T01:10:04.756Z,71.18
2022-08-07T01:12:31.028Z,71.68
2022-08-07T01:15:03.971Z,72.25
2022-08-07T01:17:33.676Z,71.66
2022-08-07T01:20:06.642Z,71.63
2022-08-07T01:22:46.490Z,71.56
2022-08-07T01:25:54.870Z,71.65
2022-08-07T01:28:11.688Z,72.24
2022-08-07T01:30:41.216Z,71.50
2022-08-07T01:33:10.277Z,71.93
2022-08-07T01:35:53.629Z,72.21
2022-08-07T01:38:26.013Z,71.71
2022-08-07T01:41:01.853Z,72.31
2022-08-07T01:43:34.586Z,70.72
2022-08-07T01:46:08.077Z,71.04
2022-08-07T01:48:40.938Z,71.01
2022-08-07T01:51:58.697Z,71.05
2022-08-07T01:54:09.999Z,71.65
2022-08-07T01:56:49.362Z,71.90
2022-08-07T01:59:24.110Z,70.75
2022-08-07T02:02:06.306Z,70.69
2022-08-07T02:04:56.300Z,70.96
2022-08-07T02:07:44.762Z,70.78
2022-08-07T02:10:24.666Z,71.10
2022-08-07T02:12:55.958Z,71.36
2022-08-07T02:15:28.996Z,70.47
2022-08-07T02:18:00.008Z,70.40
2022-08-07T02:20:29.363Z,71.96
2022-08-07T02:23:01.749Z,70.97
2022-08-07T02:26:32.365Z,71.43
2022-08-07T02:28:24.703Z,71.27
2022-08-07T02:30:56.218Z,71.09
2022-08-07T02:33:32.860Z,71.24
2022-08-07T02:36:29.723Z,71.27
2022-08-07T02:39:16.276Z,71.52
2022-08-07T02:41:54.465Z,72.03
2022-08-07T02:44:27.488Z,71.14
2022-08-07T02:47:03.704Z,70.95
2022-08-07T02:49:58.722Z,70.86
2022-08-07T02:52:32.137Z,70.84
2022-08-07T02:55:04.782Z,70.75
2022-08-07T02:57:59.068Z,72.09
2022-08-07T03:00:30.516Z,72.64
2022-08-07T03:02:59.672Z,70.95
2022-08-07T03:05:37.099Z,71.04
2022-08-07T03:08:10.176Z,71.63
2022-08-07T03:10:41.066Z,71.10
2022-08-07T03:13:19.369Z,70.61
2022-08-07T03:15:56.834Z,70.89
2022-08-07T03:18:34.916Z,71.21
2022-08-07T03:21:08.783Z,70.71
2022-08-07T03:24:20.625Z,70.53
2022-08-07T03:26:32.387Z,70.05
2022-08-07T03:29:05.381Z,69.77
2022-08-07T03:31:43.325Z,69.48
2022-08-07T03:34:18.759Z,69.68
2022-08-07T03:36:53.168Z,69.40
2022-08-07T03:39:59.144Z,69.84
2022-08-07T03:42:15.301Z,70.85
2022-08-07T03:44:53.059Z,70.47
2022-08-07T03:47:22.921Z,69.94
2022-08-07T03:49:52.414Z,70.67
2022-08-07T03:52:26.836Z,70.27
2022-08-07T03:55:06.117Z,70.41
2022-08-07T03:58:33.157Z,69.78
2022-08-07T04:00:30.492Z,69.96
2022-08-07T04:03:04.146Z,70.06
2022-08-07T04:05:40.131Z,70.04
2022-08-07T04:08:12.327Z,69.63
2022-08-07T04:10:42.377Z,70.45
2022-08-07T04:13:15.417Z,70.50
2022-08-07T04:15:49.133Z,70.84
2022-08-07T04:18:57.491Z,70.90
2022-08-07T04:21:07.281Z,70.74
2022-08-07T04:23:43.600Z,71.00
2022-08-07T04:26:28.412Z,70.58
2022-08-07T04:28:57.029Z,70.12
2022-08-07T04:31:39.134Z,70.66
2022-08-07T04:34:23.950Z,71.15
2022-08-07T04:36:55.519Z,70.73
2022-08-07T04:39:26.244Z,69.92
2022-08-07T04:41:54.964Z,70.30
2022-08-07T04:44:23.273Z,70.12
2022-08-07T04:47:07.791Z,70.41
2022-08-07T04:49:57.335Z,69.01
2022-08-07T04:52:33.709Z,69.18
2022-08-07T04:55:15.018Z,69.93
2022-08-07T04:58:11.443Z,68.59
2022-08-07T05:00:55.904Z,68.87
2022-08-07T05:03:59.577Z,69.48
2022-08-07T05:06:28.168Z,68.92
2022-08-07T05:09:06.239Z,68.08
2022-08-07T05:11:58.730Z,67.92
2022-08-07T05:14:52.378Z,67.13
2022-08-07T05:17:50.887Z,66.28
2022-08-07T05:20:14.677Z,66.63
2022-08-07T05:22:47.543Z,65.08
2022-08-07T05:25:25.913Z,65.25
2022-08-07T05:28:20.480Z,66.07
2022-08-07T05:30:53.291Z,64.34
2022-08-07T05:33:22.708Z,64.50
2022-08-07T05:35:55.090Z,63.47
2022-08-07T05:39:00.981Z,60.08
2022-08-07T05:41:16.711Z,59.97
2022-08-07T05:44:11.941Z,60.62
2022-08-07T05:46:39.348Z,61.44
2022-08-07T05:49:12.300Z,62.03
2022-08-07T05:51:46.382Z,61.82
2022-08-07T05:54:30.717Z,61.56
2022-08-07T05:57:05.007Z,62.00
2022-08-07T05:59:57.690Z,61.80
2022-08-07T06:02:30.510Z,62.39
2022-08-07T06:05:03.878Z,61.92
2022-08-07T06:08:09.183Z,62.02
2022-08-07T06:10:23.032Z,62.44
2022-08-07T06:12:51.231Z,62.13
2022-08-07T06:15:21.087Z,62.62
2022-08-07T06:17:53.471Z,61.53
2022-08-07T06:20:25.548Z,61.25
2022-08-07T06:23:46.214Z,60.64
2022-08-07T06:25:58.339Z,59.80
2022-08-07T06:28:27.421Z,59.65
2022-08-07T06:30:58.353Z,60.06
2022-08-07T06:33:26.794Z,57.12
2022-08-07T06:36:06.863Z,57.18
2022-08-07T06:38:58.816Z,57.81
2022-08-07T06:42:01.853Z,57.87
2022-08-07T06:44:25.983Z,56.99
2022-08-07T06:47:10.662Z,56.91
2022-08-07T06:49:52.116Z,56.04
2022-08-07T06:52:35.490Z,55.98
2022-08-07T06:55:33.421Z,56.29
2022-08-07T06:58:04.269Z,54.61
2022-08-07T07:00:36.718Z,55.08
2022-08-07T07:03:08.740Z,54.89
2022-08-07T07:06:02.625Z,54.18
2022-08-07T07:08:28.383Z,54.37
2022-08-07T07:10:58.965Z,53.34
2022-08-07T07:13:55.507Z,52.98
2022-08-07T07:16:27.233Z,53.08
2022-08-07T07:19:04.034Z,52.78
2022-08-07T07:22:05.071Z,52.70
2022-08-07T07:24:32.536Z,52.62
2022-08-07T07:27:06.877Z,52.75
2022-08-07T07:30:09.413Z,52.51
2022-08-07T07:32:27.294Z,51.88
2022-08-07T07:34:59.142Z,52.53
2022-08-07T07:37:45.309Z,52.66
2022-08-07T07:40:21.391Z,53.31
2022-08-07T07:42:58.766Z,53.00
2022-08-07T07:46:40.537Z,52.06
2022-08-07T07:48:35.839Z,52.06
2022-08-07T07:51:08.047Z,51.55
2022-08-07T07:53:52.588Z,51.60
2022-08-07T07:56:30.145Z,50.46
2022-08-07T07:59:03.870Z,51.44
2022-08-07T08:02:02.170Z,50.98
2022-08-07T08:04:27.494Z,50.21
2022-08-07T08:06:56.989Z,49.44
2022-08-07T08:09:32.960Z,49.82
2022-08-07T08:12:43.199Z,49.37
2022-08-07T08:15:12.151Z,49.04
2022-08-07T08:17:58.058Z,48.04
2022-08-07T08:20:32.151Z,47.35
2022-08-07T08:23:19.261Z,48.09
2022-08-07T08:26:10.083Z,47.12
2022-08-07T08:28:45.171Z,46.68
2022-08-07T08:31:29.967Z,46.47
2022-08-07T08:34:12.500Z,46.16
2022-08-07T08:36:58.448Z,45.30
2022-08-07T08:39:39.667Z,45.31
2022-08-07T08:42:25.657Z,44.42
2022-08-07T08:45:04.414Z,44.64
2022-08-07T08:47:52.210Z,44.28
2022-08-07T08:50:34.964Z,44.50
2022-08-07T08:53:20.374Z,43.64
2022-08-07T08:55:55.267Z,43.75
2022-08-07T08:58:36.846Z,43.70
2022-08-07T09:01:18.535Z,43.25
2022-08-07T09:04:00.121Z,44.54
2022-08-07T09:06:40.492Z,43.66
2022-08-07T09:09:23.650Z,43.76
2022-08-07T09:12:20.044Z,42.63
2022-08-07T09:16:22.155Z,43.00
2022-08-07T09:18:06.000Z,43.23
2022-08-07T09:20:58.352Z,43.01
2022-08-07T09:24:29.004Z,42.81
2022-08-07T09:26:40.628Z,41.67
2022-08-07T09:30:05.361Z,42.25
2022-08-07T09:32:26.851Z,41.99
2022-08-07T09:36:04.797Z,42.27
2022-08-07T09:38:04.438Z,42.03
2022-08-07T09:40:58.798Z,41.21
2022-08-07T09:43:40.590Z,41.78
2022-08-07T09:47:42.526Z,41.74
2022-08-07T09:50:01.949Z,40.81
2022-08-07T09:52:43.972Z,40.68
2022-08-07T09:55:29.646Z,40.54
2022-08-07T09:58:32.519Z,41.05
2022-08-07T10:01:51.019Z,40.20
2022-08-07T10:04:32.821Z,39.71
2022-08-07T10:07:24.470Z,40.74
2022-08-07T10:10:04.756Z,40.90
2022-08-07T10:12:53.299Z,40.71
2022-08-07T10:15:44.481Z,40.70
2022-08-07T10:18:35.843Z,40.23
2022-08-07T10:21:20.081Z,39.39
2022-08-07T10:24:21.367Z,39.17
2022-08-07T10:27:10.341Z,39.13
2022-08-07T10:30:01.009Z,38.45
2022-08-07T10:32:53.051Z,38.02
2022-08-07T10:35:55.593Z,37.92
2022-08-07T10:38:46.420Z,38.17
2022-08-07T10:41:52.339Z,38.07
2022-08-07T10:44:37.693Z,37.79
2022-08-07T10:47:27.130Z,37.64
2022-08-07T10:50:15.241Z,37.30
2022-08-07T10:52:53.511Z,37.88
2022-08-07T10:55:38.207Z,37.34
2022-08-07T10:58:31.878Z,38.50
2022-08-07T11:01:22.409Z,38.08
2022-08-07T11:04:23.047Z,37.59
2022-08-07T11:07:02.048Z,37.96
2022-08-07T11:10:07.461Z,37.17
2022-08-07T11:12:35.355Z,36.66
2022-08-07T11:15:09.675Z,36.72
2022-08-07T11:17:49.425Z,36.66
2022-08-07T11:20:24.512Z,36.16
2022-08-07T11:23:04.353Z,36.26
2022-08-07T11:25:48.236Z,36.30
2022-08-07T11:28:24.832Z,35.20
2022-08-07T11:30:59.005Z,35.68
2022-08-07T11:33:58.535Z,35.88
2022-08-07T11:36:40.333Z,36.53
2022-08-07T11:39:19.577Z,37.40
2022-08-07T11:42:01.646Z,37.19
2022-08-07T11:44:39.408Z,37.33
2022-08-07T11:47:39.059Z,37.26
2022-08-07T11:50:35.146Z,36.77
2022-08-07T11:53:22.023Z,37.56
2022-08-07T11:56:26.104Z,37.18
2022-08-07T12:00:07.690Z,36.53
2022-08-07T12:02:04.061Z,35.69
2022-08-07T12:05:00.789Z,36.47
2022-08-07T12:07:39.128Z,37.29
2022-08-07T12:10:16.666Z,36.41
2022-08-07T12:12:49.192Z,36.65
2022-08-07T12:15:46.677Z,37.26
2022-08-07T12:18:22.047Z,37.90
2022-08-07T12:21:07.479Z,38.38
2022-08-07T12:24:06.704Z,38.60
2022-08-07T12:26:46.728Z,38.88
2022-08-07T12:29:38.900Z,38.63
2022-08-07T12:32:16.273Z,38.95
2022-08-07T12:34:49.164Z,38.80
2022-08-07T12:37:27.695Z,38.98
2022-08-07T12:39:58.900Z,38.36
2022-08-07T12:42:31.839Z,38.81
2022-08-07T12:45:06.625Z,39.36
2022-08-07T12:47:41.626Z,38.32
2022-08-07T12:50:39.347Z,39.02
2022-08-07T12:53:18.247Z,39.49
2022-08-07T12:56:02.942Z,39.67
2022-08-07T12:58:39.914Z,38.33
2022-08-07T13:01:20.502Z,37.82
2022-08-07T13:04:05.062Z,37.74
2022-08-07T13:07:00.307Z,38.41
2022-08-07T13:10:29.361Z,38.13
2022-08-07T13:12:41.430Z,39.21
2022-08-07T13:15:29.525Z,38.36
2022-08-07T13:18:26.440Z,38.47
2022-08-07T13:21:03.694Z,38.15
2022-08-07T13:24:01.057Z,37.90
2022-08-07T13:26:35.145Z,37.75
2022-08-07T13:29:12.487Z,38.19
2022-08-07T13:31:55.254Z,39.25
2022-08-07T13:34:38.700Z,38.27
2022-08-07T13:37:20.110Z,38.07
2022-08-07T13:40:35.321Z,38.20
2022-08-07T13:42:53.608Z,38.48
2022-08-07T13:46:12.527Z,38.72
2022-08-07T13:48:20.572Z,38.68
2022-08-07T13:51:01.407Z,37.99
2022-08-07T13:53:59.590Z,38.53
2022-08-07T13:56:35.533Z,38.88
2022-08-07T13:59:13.628Z,38.30
2022-08-07T14:02:03.862Z,39.03
2022-08-07T14:04:47.479Z,38.60
2022-08-07T14:07:22.954Z,38.54
2022-08-07T14:10:14.924Z,38.27
2022-08-07T14:12:54.794Z,38.25
2022-08-07T14:15:36.738Z,38.94
2022-08-07T14:18:24.081Z,38.02
2022-08-07T14:22:41.086Z,38.33
2022-08-07T14:24:02.090Z,38.80
2022-08-07T14:26:37.113Z,38.32
2022-08-07T14:30:08.006Z,38.09
2022-08-07T14:32:02.725Z,38.30
2022-08-07T14:34:34.447Z,38.36
2022-08-07T14:37:18.596Z,38.59
2022-08-07T14:40:17.031Z,38.22
2022-08-07T14:43:00.881Z,38.21
2022-08-07T14:48:27.503Z,38.50
2022-08-07T14:51:00.160Z,38.73
2022-08-07T14:54:05.731Z,38.42
2022-08-07T15:00:03.003Z,39.23
2022-08-07T15:02:32.145Z,38.77
2022-08-07T15:05:01.823Z,39.03
2022-08-07T15:07:47.241Z,38.92
2022-08-07T15:10:26.409Z,38.17
2022-08-07T15:12:58.206Z,38.24
2022-08-07T15:15:38.484Z,38.74
2022-08-07T15:21:07.940Z,38.33
2022-08-07T15:25:15.252Z,37.87
2022-08-07T15:26:39.465Z,37.99
2022-08-07T15:30:04.545Z,38.61
2022-08-07T15:32:03.056Z,37.77
2022-08-07T15:34:37.560Z,38.11
2022-08-07T15:40:20.480Z,38.59
2022-08-07T15:43:52.883Z,38.67
2022-08-07T15:46:32.429Z,38.55
2022-08-07T15:49:12.943Z,38.98
2022-08-07T15:54:34.510Z,38.08
2022-08-07T15:57:05.802Z,38.33
2022-08-07T15:59:40.006Z,37.94
2022-08-07T16:02:15.536Z,38.73
2022-08-07T16:04:44.582Z,38.36
2022-08-07T16:08:28.539Z,38.33
2022-08-07T16:10:18.545Z,38.53
2022-08-07T16:13:04.770Z,38.44
2022-08-07T16:15:57.208Z,38.73
2022-08-07T16:18:50.206Z,38.80
2022-08-07T16:21:53.563Z,38.66
2022-08-07T16:24:34.329Z,38.43
2022-08-07T16:27:18.169Z,38.53
2022-08-07T16:30:29.446Z,38.75
2022-08-07T16:34:01.804Z,38.35
2022-08-07T16:36:19.849Z,38.22
2022-08-07T16:39:04.529Z,38.31
2022-08-07T16:41:58.509Z,38.73
2022-08-07T16:45:24.660Z,38.02
2022-08-07T16:47:56.799Z,38.37
2022-08-07T16:50:48.468Z,38.36
2022-08-07T16:54:01.769Z,38.11
2022-08-07T16:56:37.538Z,38.17
2022-08-07T16:59:15.210Z,38.19
2022-08-07T17:02:03.132Z,38.47
2022-08-07T17:04:50.703Z,38.77
2022-08-07T17:07:51.517Z,38.54
2022-08-07T17:10:32.249Z,38.07
2022-08-07T17:13:41.189Z,38.49
2022-08-07T17:16:21.675Z,38.64
2022-08-07T17:19:03.219Z,38.66
2022-08-07T17:21:51.165Z,38.44
2022-08-07T17:24:54.807Z,38.64
2022-08-07T17:27:34.657Z,38.66
2022-08-07T17:30:15.523Z,39.09
2022-08-07T17:34:08.256Z,39.13
2022-08-07T17:36:01.849Z,39.08
2022-08-07T17:38:35.513Z,39.29
2022-08-07T17:42:02.295Z,39.30
2022-08-07T17:44:05.850Z,39.27
2022-08-07T17:46:52.547Z,39.62
2022-08-07T17:49:24.655Z,39.24
2022-08-07T17:52:00.673Z,39.68
2022-08-07T17:54:53.091Z,39.29
2022-08-07T17:57:56.649Z,39.74
2022-08-07T18:00:33.003Z,40.34
2022-08-07T18:03:28.449Z,40.21
2022-08-07T18:06:36.929Z,39.74
2022-08-07T18:09:08.714Z,40.01
2022-08-07T18:12:17.474Z,40.04
2022-08-07T18:14:45.066Z,40.10
2022-08-07T18:18:46.177Z,40.73
2022-08-07T18:21:12.714Z,40.29
2022-08-07T18:23:43.018Z,40.77
2022-08-07T18:26:19.922Z,40.30
2022-08-07T18:29:04.242Z,40.40
2022-08-07T18:31:51.168Z,40.88
2022-08-07T18:34:39.267Z,41.00
2022-08-07T18:38:56.527Z,39.54
2022-08-07T18:40:42.630Z,39.47
2022-08-07T18:43:42.565Z,38.46
2022-08-07T18:46:27.020Z,37.70
2022-08-07T18:50:19.311Z,37.09
2022-08-07T18:52:52.725Z,36.48
2022-08-07T18:54:57.273Z,36.44
2022-08-07T18:57:37.020Z,36.36
2022-08-07T19:00:32.907Z,36.75
2022-08-07T19:03:12.466Z,36.94
2022-08-07T19:06:03.613Z,37.07
2022-08-07T19:08:46.246Z,37.31
2022-08-07T19:11:36.578Z,36.82
2022-08-07T19:14:17.159Z,37.26
2022-08-07T19:17:08.064Z,37.25
2022-08-07T19:19:48.808Z,37.76
2022-08-07T19:22:31.239Z,37.93
2022-08-07T19:25:06.256Z,37.42
2022-08-07T19:28:29.554Z,37.96
2022-08-07T19:31:05.897Z,38.07
2022-08-07T19:33:35.014Z,38.03
2022-08-07T19:36:05.115Z,37.95
2022-08-07T19:38:52.984Z,38.46
2022-08-07T19:41:39.247Z,38.64
2022-08-07T19:44:21.820Z,38.83
2022-08-07T19:46:57.745Z,38.28
2022-08-07T19:49:56.628Z,38.56
2022-08-07T19:52:19.106Z,38.94
2022-08-07T19:54:56.526Z,39.10
2022-08-07T19:58:00.654Z,38.87
2022-08-07T20:00:28.326Z,39.00
2022-08-07T20:03:02.181Z,39.08
2022-08-07T20:06:00.845Z,39.31
2022-08-07T20:08:25.032Z,39.41
2022-08-07T20:11:01.757Z,39.84
2022-08-07T20:13:38.344Z,39.79
2022-08-07T20:16:22.371Z,39.79
2022-08-07T20:19:05.456Z,40.57
2022-08-07T20:21:41.774Z,40.84
2022-08-07T20:24:20.356Z,40.89
2022-08-07T20:26:54.827Z,40.53
2022-08-07T20:29:49.210Z,42.41
2022-08-07T20:32:22.369Z,41.45
2022-08-07T20:34:59.440Z,40.94
2022-08-07T20:37:34.233Z,41.88
2022-08-07T20:40:32.319Z,40.96
2022-08-07T20:43:15.013Z,41.29
2022-08-07T20:46:25.874Z,42.44
2022-08-07T20:49:54.514Z,43.59
2022-08-07T20:51:35.736Z,44.59
2022-08-07T20:54:12.137Z,42.49
2022-08-07T20:56:46.091Z,44.80
2022-08-07T21:00:04.439Z,44.14
2022-08-07T21:02:33.979Z,44.93
2022-08-07T21:05:10.414Z,42.88
2022-08-07T21:07:48.979Z,43.26
2022-08-07T21:10:29.532Z,43.54
2022-08-07T21:13:04.249Z,43.57
2022-08-07T21:15:47.667Z,42.91
2022-08-07T21:18:20.313Z,42.38
2022-08-07T21:20:56.253Z,42.25
2022-08-07T21:23:35.628Z,42.89
2022-08-07T21:26:27.185Z,42.68
2022-08-07T21:29:04.260Z,42.94
2022-08-07T21:31:49.460Z,42.84
2022-08-07T21:34:46.309Z,43.19
2022-08-07T21:37:22.843Z,44.31
2022-08-07T21:39:59.033Z,43.12
2022-08-07T21:42:42.651Z,43.10
2022-08-07T21:46:07.983Z,43.35
2022-08-07T21:48:28.022Z,43.39
2022-08-07T21:51:06.105Z,43.42
2022-08-07T21:53:46.353Z,43.40
2022-08-07T21:56:40.361Z,43.41
2022-08-07T21:59:31.449Z,43.01
2022-08-07T22:02:27.601Z,43.12
2022-08-07T22:05:01.318Z,43.59
2022-08-07T22:07:58.960Z,43.89
2022-08-07T22:10:33.709Z,44.00
2022-08-07T22:13:09.462Z,43.99
2022-08-07T22:16:42.409Z,44.13
2022-08-07T22:18:38.238Z,44.57
2022-08-07T22:21:20.403Z,44.30
2022-08-07T22:23:53.708Z,43.99
2022-08-07T22:26:28.000Z,44.19
2022-08-07T22:29:05.013Z,44.17
2022-08-07T22:32:05.489Z,44.09
2022-08-07T22:34:49.787Z,43.96
2022-08-07T22:38:03.211Z,44.35
2022-08-07T22:40:41.074Z,43.89
2022-08-07T22:43:11.284Z,44.12
2022-08-07T22:46:21.378Z,44.44
2022-08-07T22:49:02.028Z,44.35
2022-08-07T22:52:12.560Z,45.02
2022-08-07T22:55:14.841Z,45.08
2022-08-07T22:58:11.627Z,45.39
2022-08-07T23:00:47.931Z,45.77
2022-08-07T23:03:57.362Z,45.75
2022-08-07T23:06:56.116Z,46.66
2022-08-07T23:10:04.644Z,46.36
2022-08-07T23:12:34.530Z,47.51
2022-08-07T23:15:22.104Z,46.71
2022-08-07T23:18:21.731Z,46.58
2022-08-07T23:21:06.126Z,47.45
2022-08-07T23:24:06.922Z,46.77
2022-08-07T23:26:50.580Z,47.71
2022-08-07T23:30:37.030Z,48.07
2022-08-07T23:34:36.091Z,47.94
2022-08-07T23:35:48.299Z,48.12
2022-08-07T23:38:36.311Z,48.32
2022-08-07T23:41:33.271Z,48.87
2022-08-07T23:44:24.733Z,47.98
2022-08-07T23:47:21.019Z,47.24
2022-08-07T23:50:18.078Z,47.00
2022-08-07T23:53:08.847Z,47.35
2022-08-07T23:55:54.234Z,47.38
2022-08-07T23:58:37.450Z,47.55
